• Join FlightAware (Why Join?)
  • Login
  • US Flag 
09:45PM EDT


 

Airport Tracker/Info


-or-


 

Live Flight TrackerFlight Track Log ✈ AAL832 ✈ 26-Jun-2013 ✈ KORD - KMIA

Flight Track Log - Related Links

Times and Time Zones

All times are in EDT time to prevent confusion due to time zone crossing. See the AAL832 flight status page for this flight to view local times or setup timezone preferences in your user account.

Time Position Orientation Groundspeed Altitude Reporting Facility
EDT Latitude Longitude Course Direction KTS MPH feet Rate Location/Type
06:16PM 41.9120 -87.9030 173° South 203 234 2,900  Level FlightAware
06:17PM 41.8860 -87.8990 173° South 230 265 3,700 2,880 Climbing FlightAware
06:17PM 41.8350 -87.9030 183° South 248 285 5,800 2,640 Climbing FlightAware
06:18PM 41.7980 -87.9150 194° South 274 315 7,000 2,460 Climbing FlightAware
06:18PM 41.7650 -87.9260 194° South 284 327 8,100 2,460 Climbing FlightAware
06:19PM 41.7490 -87.9300 191° South 290 334 8,600 2,640 Climbing FlightAware
06:19PM 41.6910 -87.9480 193° South 301 346 10,600 2,640 Climbing FlightAware
06:20PM 41.6350 -87.9640 192° South 318 366 12,300 1,980 Climbing FlightAware
06:21PM 41.5640 -87.9840 192° South 359 413 13,500 1,620 Climbing FlightAware
06:21PM 41.4960 -88.0050 193° South 381 438 14,700 2,100 Climbing FlightAware
06:22PM 41.4200 -88.0260 192° South 387 445 16,500 1,980 Climbing FlightAware
06:23PM 41.3490 -88.0480 193° South 406 467 17,500 1,740 Climbing FlightAware
06:23PM 41.2710 -88.0760 195° South 417 480 18,900 2,040 Climbing FlightAware
06:24PM 41.2020 -88.0970 193° South 423 487 20,200 1,860 Climbing FlightAware
06:25PM 41.1150 -88.1220 192° South 435 501 21,500 1,560 Climbing FlightAware
06:26PM 41.0310 -88.1460 192° South 448 516 22,500 1,500 Climbing FlightAware
06:26PM 40.9330 -88.1740 192° South 460 529 23,700 1,500 Climbing FlightAware
06:27PM 40.8480 -88.1980 192° South 468 539 24,700 2,100 Climbing FlightAware
06:28PM 40.7660 -88.2220 192° South 452 520 26,500 2,820 Climbing FlightAware
06:28PM 40.6850 -88.2450 192° South 428 493 28,500 2,340 Climbing FlightAware
06:29PM 40.5930 -88.2710 192° South 416 479 30,000 1,500 Climbing FlightAware
06:30PM 40.5200 -88.2910 192° South 421 484 30,700 1,020 Climbing FlightAware
06:30PM 40.4480 -88.3110 192° South 425 489 31,300 960 Climbing FlightAware
06:31PM 40.3590 -88.3360 192° South 430 495 32,100 1,020 Climbing FlightAware
06:32PM 40.2790 -88.3640 195° South 431 496 32,800 840 Climbing FlightAware
06:33PM 40.1190 -88.4490 202° Southwest 432 497 34,000 540 Climbing FlightAware
06:34PM 40.0490 -88.5140 215° Southwest 433 498 34,000  Level FlightAware
06:35PM 39.9950 -88.5690 218° Southwest 433 498 34,000  Level FlightAware
06:35PM 39.9280 -88.6420 220° Southwest 436 502 34,000  Level FlightAware
06:36PM 39.8570 -88.7210 221° Southwest 438 504 34,000 360 Level FlightAware
06:37PM 39.7920 -88.7940 221° Southwest 440 506 34,600 660 Climbing FlightAware
06:37PM 39.7260 -88.8680 221° Southwest 440 506 35,000 300 Climbing FlightAware
06:38PM 39.6680 -88.9340 221° Southwest 440 506 35,000 600 Level FlightAware
06:39PM 39.6010 -89.0040 219° Southwest 434 499 35,900 660 Climbing FlightAware
06:40PM 39.5220 -89.0540 206° Southwest 438 504 36,000 60 Climbing FlightAware
06:40PM 39.4440 -89.0820 195° South 439 505 36,000  Level FlightAware
06:41PM 39.3610 -89.1090 194° South 438 504 36,000  Level FlightAware
06:42PM 39.2990 -89.1290 194° South 438 504 36,000  Level FlightAware
06:42PM 39.1830 -89.1400 184° South 437 503 36,000  Level FlightAware
06:43PM 39.0980 -89.1420 181° South 437 503 36,000  Level FlightAware
06:44PM 39.0130 -89.1440 181° South 436 502 36,000  Level FlightAware
06:44PM 38.9320 -89.1460 181° South 437 503 36,000  Level FlightAware
06:45PM 38.8540 -89.1480 181° South 437 503 36,000  Level FlightAware
06:46PM 38.7640 -89.1510 181° South 439 505 36,000  Level FlightAware
06:47PM 38.6710 -89.1530 181° South 446 513 36,000 360 Level FlightAware
06:47PM 38.5960 -89.1550 181° South 448 516 36,500 720 Climbing FlightAware
06:48PM 38.5060 -89.1570 181° South 446 513 37,000 240 Climbing FlightAware
06:49PM 38.3820 -89.1460 176° South 456 525 37,000  Level FlightAware
06:50PM 38.2980 -89.1200 166° South 457 526 37,000  Level FlightAware
06:50PM 38.2080 -89.0910 166° South 457 526 37,000  Level FlightAware
06:51PM 38.1270 -89.0650 166° South 445 512 37,000  Level FlightAware
06:52PM 38.0470 -89.0390 166° South 441 507 37,000  Level FlightAware
06:52PM 37.9600 -89.0110 166° South 438 504 37,000  Level FlightAware
06:53PM 37.8740 -88.9840 166° South 440 506 37,000  Level FlightAware
06:54PM 37.8010 -88.9440 157° South 451 519 37,000  Level FlightAware
06:54PM 37.7390 -88.8650 135° Southeast 457 526 37,000  Level FlightAware
06:55PM 37.6840 -88.7870 132° Southeast 458 527 37,000  Level FlightAware
06:56PM 37.6160 -88.6910 132° Southeast 456 525 37,000  Level FlightAware
06:57PM 37.5590 -88.6120 132° Southeast 455 524 37,000  Level FlightAware
06:57PM 37.5000 -88.5290 132° Southeast 452 520 37,000  Level FlightAware
06:58PM 37.4440 -88.4510 132° Southeast 449 517 37,000  Level FlightAware
06:59PM 37.3850 -88.3690 132° Southeast 448 516 37,000  Level FlightAware
06:59PM 37.3270 -88.2890 132° Southeast 453 521 37,000  Level FlightAware
07:00PM 37.2650 -88.2030 132° Southeast 456 525 37,000  Level FlightAware
07:01PM 37.2040 -88.1200 133° Southeast 455 524 37,000  Level FlightAware
07:02PM 37.1450 -88.0380 132° Southeast 453 521 37,000  Level FlightAware
07:02PM 37.0870 -87.9590 133° Southeast 450 518 37,000  Level FlightAware
07:03PM 37.0290 -87.8800 133° Southeast 449 517 37,000  Level FlightAware
07:04PM 36.9710 -87.8010 133° Southeast 452 520 37,000  Level FlightAware
07:04PM 36.9100 -87.7190 133° Southeast 457 526 37,000  Level FlightAware
07:05PM 36.8460 -87.6320 133° Southeast 457 526 37,000  Level FlightAware
07:06PM 36.7890 -87.5540 132° Southeast 455 524 37,000  Level FlightAware
07:06PM 36.7270 -87.4710 133° Southeast 454 522 37,000  Level FlightAware
07:07PM 36.6710 -87.3950 133° Southeast 452 520 37,000  Level FlightAware
07:08PM 36.6140 -87.3190 133° Southeast 450 518 37,000  Level FlightAware
07:09PM 36.5490 -87.2310 133° Southeast 447 514 37,000  Level FlightAware
07:09PM 36.4900 -87.1520 133° Southeast 444 511 37,000  Level FlightAware
07:10PM 36.4340 -87.0780 133° Southeast 443 510 37,000  Level FlightAware
07:11PM 36.3840 -87.0110 133° Southeast 444 511 37,000  Level FlightAware
07:11PM 36.3150 -86.9210 134° Southeast 443 510 37,000  Level FlightAware
07:12PM 36.2540 -86.8390 133° Southeast 450 518 37,000  Level FlightAware
07:12PM 36.2357 -86.8145 133° Southeast 454 522 37,000  Level FlightAware ADS-B
07:13PM 36.1910 -86.7560 133° Southeast 456 525 37,000  Level FlightAware ADS-B
07:13PM 36.1528 -86.7084 135° Southeast 455 524 37,000  Level FlightAware ADS-B
07:14PM 36.1019 -86.6679 147° Southeast 455 524 37,000  Level FlightAware ADS-B
07:14PM 36.0420 -86.6375 158° South 455 524 37,000  Level FlightAware ADS-B
07:15PM 35.9680 -86.6010 158° South 455 524 37,000  Level FlightAware
07:15PM 35.9251 -86.5793 158° South 455 524 37,000  Level FlightAware ADS-B
07:16PM 35.8628 -86.5485 158° South 456 525 37,000  Level FlightAware ADS-B
07:16PM 35.8040 -86.5195 158° South 456 525 37,000  Level FlightAware ADS-B
07:17PM 35.7447 -86.4903 158° South 457 526 37,000  Level FlightAware ADS-B
07:17PM 35.6843 -86.4605 158° South 456 525 37,000  Level FlightAware ADS-B
07:18PM 35.6210 -86.4294 158° South 455 524 37,000  Level FlightAware ADS-B
07:18PM 35.5592 -86.3990 158° South 455 524 37,000  Level FlightAware ADS-B
07:19PM 35.4810 -86.3605 158° South 456 525 37,000  Level FlightAware ADS-B
07:20PM 35.3940 -86.3180 158° South 454 522 37,000  Level FlightAware
07:20PM 35.3150 -86.2790 158° South 455 524 37,000  Level FlightAware
07:21PM 35.2350 -86.2410 159° South 455 524 37,000  Level FlightAware
07:21PM 35.1980 -86.2225 158° South 456 525 37,000  Level FlightAware ADS-B
07:22PM 35.1380 -86.1932 158° South 455 524 37,000  Level FlightAware ADS-B
07:22PM 35.0749 -86.1626 158° South 454 522 37,000  Level FlightAware ADS-B
07:23PM 35.0156 -86.1339 158° South 455 524 37,000  Level FlightAware ADS-B
07:23PM 34.9543 -86.1043 158° South 455 524 37,000  Level FlightAware ADS-B
07:24PM 34.8919 -86.0743 158° South 454 522 37,000  Level FlightAware ADS-B
07:25PM 34.8323 -86.0456 158° South 454 522 37,000  Level FlightAware ADS-B
07:25PM 34.7726 -86.0168 158° South 454 522 37,000  Level FlightAware ADS-B
07:26PM 34.6977 -85.9809 158° South 453 521 37,000  Level FlightAware ADS-B
07:26PM 34.6139 -85.9408 159° South 453 521 37,000  Level FlightAware ADS-B
07:27PM 34.5541 -85.9121 158° South 453 521 37,000  Level FlightAware ADS-B
07:27PM 34.4953 -85.8841 159° South 453 521 37,000  Level FlightAware ADS-B
07:28PM 34.4314 -85.8536 159° South 453 521 37,000  Level FlightAware ADS-B
07:28PM 34.3712 -85.8249 159° South 453 521 37,000  Level FlightAware ADS-B
07:29PM 34.3091 -85.7954 159° South 453 521 37,000  Level FlightAware ADS-B
07:29PM 34.2499 -85.7673 159° South 454 522 37,000  Level FlightAware ADS-B
07:30PM 34.1725 -85.7306 159° South 455 524 37,000  Level FlightAware ADS-B
07:31PM 34.0824 -85.6880 159° South 456 525 37,000  Level FlightAware ADS-B
07:32PM 34.0060 -85.6520 159° South 459 528 37,000  Level FlightAware ADS-B
07:32PM 33.9456 -85.6236 159° South 461 531 37,000  Level FlightAware ADS-B
07:33PM 33.8815 -85.5934 159° South 463 533 37,000  Level FlightAware ADS-B
07:33PM 33.8213 -85.5651 159° South 465 535 37,000  Level FlightAware ADS-B
07:34PM 33.7574 -85.5351 159° South 466 536 37,000  Level FlightAware ADS-B
07:34PM 33.6897 -85.5035 159° South 467 537 37,000  Level FlightAware ADS-B
07:35PM 33.5956 -85.4593 159° South 470 541 37,000  Level FlightAware ADS-B
07:36PM 33.5008 -85.4151 159° South 472 543 37,000  Level FlightAware ADS-B
07:36PM 33.4280 -85.3814 159° South 473 544 37,000  Level FlightAware ADS-B
07:37PM 33.3640 -85.3518 159° South 472 543 37,000  Level FlightAware ADS-B
07:37PM 33.3028 -85.3235 159° South 471 542 37,000  Level FlightAware ADS-B
07:38PM 33.2090 -85.2800 159° South 465 535 37,000  Level FlightAware
07:39PM 33.1432 -85.2496 159° South 468 539 37,000  Level FlightAware ADS-B
07:40PM 33.0440 -85.2050 159° South 454 522 37,000  Level FlightAware
07:40PM 32.9600 -85.1750 163° South 454 522 37,000  Level FlightAware
07:41PM 32.8740 -85.1460 164° South 454 522 37,000  Level FlightAware
07:42PM 32.7860 -85.1160 164° South 452 520 37,000  Level FlightAware
07:42PM 32.7050 -85.0890 164° South 452 520 37,000  Level FlightAware
07:43PM 32.6230 -85.0600 163° South 452 520 37,000  Level FlightAware
07:44PM 32.5220 -85.0260 164° South 453 521 37,000  Level FlightAware
07:45PM 32.4430 -84.9990 164° South 453 521 37,000  Level FlightAware
07:45PM 32.3850 -84.9800 165° South 453 521 37,000  Level FlightAware
07:46PM 32.3030 -84.9520 164° South 453 521 37,000  Level FlightAware
07:47PM 32.2410 -84.9310 164° South 453 521 37,000  Level FlightAware
07:47PM 32.1590 -84.9030 164° South 453 521 37,000  Level FlightAware
07:48PM 32.0800 -84.8760 164° South 453 521 37,000  Level FlightAware
07:49PM 32.0180 -84.8550 164° South 453 521 37,000  Level FlightAware
07:49PM 31.9550 -84.8340 164° South 453 521 37,000  Level FlightAware
07:50PM 31.7780 -84.6570 140° Southeast 459 528 37,000  Level FlightAware
07:51PM 31.7230 -84.6170 148° Southeast 459 528 37,000  Level FlightAware
07:52PM 31.6480 -84.5610 148° Southeast 459 528 37,000  Level FlightAware
07:52PM 31.5940 -84.5220 148° Southeast 459 528 37,000  Level FlightAware
07:53PM 31.5190 -84.4670 148° Southeast 459 528 37,000  Level FlightAware
07:54PM 31.4640 -84.4270 148° Southeast 459 528 37,000  Level FlightAware
07:55PM 31.3910 -84.3730 148° Southeast 459 528 37,000  Level FlightAware
07:55PM 31.3340 -84.3320 148° Southeast 459 528 37,000  Level FlightAware
07:56PM 31.2770 -84.2900 148° Southeast 459 528 37,000  Level FlightAware
07:57PM 31.2020 -84.2350 148° Southeast 459 528 37,000  Level FlightAware
07:57PM 31.1460 -84.1940 148° Southeast 459 528 37,000  Level FlightAware
07:58PM 30.9390 -84.0130 143° Southeast 450 518 37,000  Level FlightAware
07:59PM 30.8700 -83.9330 135° Southeast 449 517 37,000  Level FlightAware
08:00PM 30.8070 -83.8590 135° Southeast 450 518 37,000  Level FlightAware
08:01PM 30.7250 -83.7610 134° Southeast 449 517 37,000  Level FlightAware
08:01PM 30.6680 -83.6920 134° Southeast 449 517 37,000  Level FlightAware
08:02PM 30.6020 -83.6170 136° Southeast 443 510 37,000  Level FlightAware
08:03PM 30.5320 -83.5820 157° South 436 502 37,000  Level FlightAware
08:04PM 30.4150 -83.5550 169° South 430 495 37,000  Level FlightAware
08:04PM 30.3330 -83.5370 169° South 437 503 37,000  Level FlightAware
08:05PM 30.2760 -83.5240 169° South 436 502 37,000  Level FlightAware
08:07PM 30.1470 -83.4950 169° South 435 501 37,000  Level FlightAware
08:08PM 29.9210 -83.4450 169° South 425 489 37,000  Level FlightAware
08:08PM 29.8320 -83.4250 169° South 426 490 37,000  Level FlightAware
08:09PM 29.7530 -83.4070 169° South 428 493 37,000 480 Level FlightAware
08:10PM 29.6740 -83.3900 169° South 426 490 37,700 1,020 Climbing FlightAware
08:11PM 29.5860 -83.3700 169° South 425 489 38,500 840 Climbing FlightAware
08:11PM 29.5000 -83.3510 169° South 424 488 39,000 300 Climbing FlightAware
08:12PM 29.4230 -83.3340 169° South 426 490 39,000  Level FlightAware
08:13PM 29.3440 -83.3170 169° South 422 486 39,000  Level FlightAware
08:13PM 29.2590 -83.2980 169° South 409 471 39,000  Level FlightAware
08:14PM 29.1830 -83.2820 170° South 408 470 39,000  Level FlightAware
08:15PM 29.0970 -83.2630 169° South 409 471 39,000  Level FlightAware
08:15PM 29.0210 -83.2460 169° South 408 470 39,000  Level FlightAware
08:16PM 28.9460 -83.2300 169° South 408 470 39,000  Level FlightAware
08:17PM 28.8610 -83.2110 169° South 413 475 39,000  Level FlightAware
08:18PM 28.7860 -83.1950 169° South 411 473 39,000  Level FlightAware
08:18PM 28.7110 -83.1790 169° South 412 474 39,000  Level FlightAware
08:19PM 28.6260 -83.1600 169° South 406 467 39,000  Level FlightAware
08:20PM 28.5510 -83.1440 169° South 406 467 39,000  Level FlightAware
08:20PM 28.4660 -83.1250 169° South 408 470 39,000  Level FlightAware
08:21PM 28.3900 -83.1090 170° South 410 472 39,000  Level FlightAware
08:22PM 28.3050 -83.0890 168° South 418 481 39,000  Level FlightAware
08:22PM 28.2320 -83.0580 159° South 414 476 39,000  Level FlightAware
08:23PM 28.1500 -83.0210 158° South 414 476 39,000  Level FlightAware
08:24PM 28.0750 -82.9880 159° South 413 475 39,000  Level FlightAware
08:25PM 28.0030 -82.9560 159° South 416 479 39,000  Level FlightAware
08:25PM 27.9220 -82.9200 159° South 416 479 39,000 -120 Level FlightAware
08:26PM 27.8510 -82.8850 156° South 423 487 38,900 -360 Descending FlightAware
08:27PM 27.7790 -82.8490 156° South 421 484 38,600 -540 Descending FlightAware
08:27PM 27.6980 -82.8100 157° South 423 487 38,200 -540 Descending FlightAware
08:28PM 27.6270 -82.7720 155° Southeast 423 487 37,900 -540 Descending FlightAware
08:29PM 27.5300 -82.7210 155° Southeast 414 476 37,400 -480 Descending FlightAware
08:30PM 27.4490 -82.6800 156° South 424 488 37,100 -300 Descending FlightAware
08:30PM 27.3790 -82.6430 155° Southeast 423 487 37,000 -120 Descending FlightAware
08:31PM 27.3060 -82.6050 155° Southeast 422 486 37,000 -300 Level FlightAware
08:32PM 27.2290 -82.5650 155° Southeast 424 488 36,600 -600 Descending FlightAware
08:32PM 27.1550 -82.5270 155° Southeast 423 487 36,200 -600 Descending FlightAware
08:33PM 27.0830 -82.4900 155° Southeast 424 488 35,800 -420 Descending FlightAware
08:35PM 27.0020 -82.4480 155° Southeast 35,000 -360 Descending FlightAware
08:35PM 26.9600 -82.4260 155° Southeast 431 496 35,000 -1,800 Level FlightAware
08:36PM 26.7600 -82.3240 156° South 441 507 32,900 -840 Descending FlightAware
08:37PM 26.8200 -82.3550 335° Northwest 436 502 33,900 -1,980 Climbing FlightAware
08:37PM 26.6150 -82.2290 151° Southeast 453 521 30,300 -3,600 Descending FlightAware
08:38PM 26.5600 -82.1440 126° Southeast 448 516 28,800 -2,100 Descending FlightAware
08:39PM 26.5060 -82.0600 126° Southeast 433 498 27,200 -2,220 Descending FlightAware
08:40PM 26.4610 -81.9880 125° Southeast 425 489 25,700 -2,280 Descending FlightAware
08:40PM 26.4200 -81.9240 126° Southeast 424 488 24,400 -360 Descending FlightAware
08:41PM 26.4460 -81.9640 306° West 428 493 25,200 -480 Climbing FlightAware
08:42PM 26.3980 -81.8890 126° Southeast 420 483 23,700 -1,680 Descending FlightAware
08:42PM 26.3750 -81.8530 125° Southeast 418 481 23,000 -1,080 Descending FlightAware
08:43PM 26.3530 -81.8190 126° Southeast 415 478 22,300 -1,080 Descending FlightAware
08:44PM 26.3260 -81.7760 125° Southeast 410 472 21,500 -1,320 Descending FlightAware
08:45PM 26.2890 -81.7140 124° Southeast 407 468 20,400 -1,260 Descending FlightAware
08:45PM 26.2690 -81.6760 120° Southeast 398 458 19,800 -720 Descending FlightAware
08:46PM 26.2520 -81.6440 121° Southeast 391 450 19,500 -540 Descending FlightAware
08:47PM 26.2190 -81.5820 121° Southeast 396 456 19,000 -2,700 Descending FlightAware
08:49PM 25.9200 -81.0210 121° Southeast 326 375 10,200 -3,000 Descending FlightAware
08:50PM 25.9020 -80.9870 120° Southeast 308 354 9,900 -600 Descending FlightAware
08:50PM 25.8900 -80.9420 107° East 294 338 9,700 -540 Descending FlightAware
08:50PM 25.8890 -80.9210 93° East 292 336 9,500 -1,080 Descending FlightAware
08:51PM 25.8880 -80.8850 92° East 289 333 9,000 -1,320 Descending FlightAware
08:51PM 25.8870 -80.8410 91° East 284 327 8,300 -1,200 Descending FlightAware
08:52PM 25.8850 -80.7960 93° East 274 315 7,800 -1,140 Descending FlightAware
08:52PM 25.8840 -80.7550 92° East 264 304 7,200 -1,260 Descending FlightAware
08:53PM 25.8830 -80.7210 92° East 262 302 6,700 -1,200 Descending FlightAware
08:53PM 25.8820 -80.6880 92° East 259 298 6,200 -1,440 Descending FlightAware
08:54PM 25.8810 -80.6480 92° East 259 298 5,400 -1,440 Descending FlightAware
08:54PM 25.8790 -80.6080 93° East 256 295 4,800 -1,140 Descending FlightAware
08:55PM 25.8780 -80.5700 92° East 253 291 4,300 -1,140 Descending FlightAware
08:55PM 25.8760 -80.5380 94° East 251 289 3,800 -1,200 Descending FlightAware
08:56PM 25.8750 -80.4990 92° East 246 283 3,200 -840 Descending FlightAware
08:56PM 25.8730 -80.4620 93° East 229 264 3,000 -360 Descending FlightAware
08:56PM 25.8720 -80.4540 98° East 219 252 3,000 -720 Level FlightAware
08:57PM 25.8670 -80.4360 107° East 203 234 2,700 -1,380 Descending FlightAware
08:57PM 25.8540 -80.4100 119° Southeast 184 212 2,000 -1,380 Descending FlightAware
08:57PM 25.8500 -80.4020 119° Southeast 178 205 1,800 -1,080 Descending FlightAware
08:58PM 25.8380 -80.3780 119° Southeast 152 175 1,300 -900 Descending FlightAware
08:58PM 25.8280 -80.3590 120° Southeast 145 167 900 -720 Descending FlightAware
08:59PM 25.8180 -80.3390 119° Southeast 149 171 600 -720 Descending FlightAware
08:59PM 25.8130 -80.3300 122° Southeast 149 171 400 -840 Descending FlightAware
08:59PM 25.8060 -80.3140 116° Southeast 146 168 100 -840 Descending FlightAware
09:00PM 25.7950 -80.2940 121° Southeast 142 163 -240 Descending FlightAware
09:00PM 25.7910 -80.2860 119° Southeast 34 39  Level FlightAware
09:01PM 25.7900 -80.2830 110° East 23 26  Level FlightAware